Time;durP1;ratioP1;P1;durP2;ratioP2;P2;SDS_P1;SDS_P2;PMS_P1;PMS_P2;Temp;Humidity;BMP_temperature;BMP_pressure;BME280_temperature;BME280_humidity;BME280_pressure;Samples;Min_cycle;Max_cycle;Signal;HPM_P1;HPM_P2
2022/04/27 00:00:41;;;;;;;;;78.20;64.20;;;;;;;;5036574;28;8783;-62
2022/04/27 00:03:08;;;;;;;;;74.00;55.40;;;;;;;;5036518;28;8776;-62
2022/04/27 00:05:38;;;;;;;;;68.20;52.20;;;;;;;;5034373;28;8807;-62
2022/04/27 00:08:07;;;;;;;;;64.80;50.40;;;;;;;;5038307;28;8803;-62
2022/04/27 00:10:34;;;;;;;;;63.20;49.80;;;;;;;;5043433;28;8778;-62
2022/04/27 00:13:01;;;;;;;;;65.20;49.60;;;;;;;;5057516;28;8772;-61
2022/04/27 00:15:29;;;;;;;;;63.60;49.80;;;;;;;;5034663;28;8815;-62
2022/04/27 00:17:59;;;;;;;;;86.60;56.80;;;;;;;;5037584;28;9499;-62
2022/04/27 00:20:26;;;;;;;;;63.20;49.80;;;;;;;;5035562;28;8799;-61
2022/04/27 00:22:53;;;;;;;;;62.00;49.00;;;;;;;;5035713;28;9405;-62
2022/04/27 00:25:20;;;;;;;;;67.25;51.00;;;;;;;;5038685;28;9427;-61
2022/04/27 00:27:48;;;;;;;;;62.50;50.50;;;;;;;;5018965;28;8830;-62
2022/04/27 00:30:15;;;;;;;;;58.25;45.00;;;;;;;;5037411;28;8760;-62
2022/04/27 00:32:45;;;;;;;;;63.60;49.00;;;;;;;;5039979;28;8776;-62
2022/04/27 00:35:12;;;;;;;;;62.00;49.25;;;;;;;;5038573;28;8777;-62
2022/04/27 00:37:39;;;;;;;;;62.20;49.00;;;;;;;;5030766;28;8794;-62
2022/04/27 00:40:06;;;;;;;;;58.25;48.50;;;;;;;;5019389;28;8735;-62
2022/04/27 00:42:34;;;;;;;;;57.75;46.25;;;;;;;;5017920;28;8739;-62
2022/04/27 00:45:06;;;;;;;;;62.00;49.00;;;;;;;;5018558;28;9455;-62
2022/04/27 00:47:33;;;;;;;;;64.60;48.80;;;;;;;;5017893;28;8767;-62
2022/04/27 00:50:04;;;;;;;;;65.00;49.00;;;;;;;;5001104;28;8759;-62
2022/04/27 00:52:32;;;;;;;;;56.25;45.25;;;;;;;;5020326;28;8745;-62
2022/04/27 00:54:59;;;;;;;;;55.75;46.00;;;;;;;;5036064;28;8725;-65
2022/04/27 00:57:28;;;;;;;;;65.50;49.75;;;;;;;;5036998;28;8741;-61
2022/04/27 00:59:54;;;;;;;;;54.00;46.00;;;;;;;;5040580;28;8782;-62
2022/04/27 01:02:22;;;;;;;;;56.50;44.50;;;;;;;;5040491;28;8751;-61
2022/04/27 01:04:49;;;;;;;;;53.25;42.00;;;;;;;;5040518;28;8867;-63
2022/04/27 01:07:16;;;;;;;;;51.50;43.00;;;;;;;;5041777;28;8759;-60
2022/04/27 01:09:43;;;;;;;;;58.00;46.75;;;;;;;;5056871;28;8743;-62
2022/04/27 01:12:11;;;;;;;;;48.75;40.25;;;;;;;;5041205;28;8743;-64
2022/04/27 01:14:45;;;;;;;;;52.00;44.25;;;;;;;;5040278;28;8751;-64
2022/04/27 01:17:12;;;;;;;;;56.25;46.25;;;;;;;;5058360;28;8767;-64
2022/04/27 01:19:42;;;;;;;;;52.00;42.25;;;;;;;;5058026;28;8841;-66
2022/04/27 01:22:11;;;;;;;;;59.75;46.25;;;;;;;;5041533;28;8782;-66
2022/04/27 01:24:40;;;;;;;;;58.75;46.50;;;;;;;;5040655;28;8794;-64
2022/04/27 01:27:07;;;;;;;;;59.00;45.75;;;;;;;;5041102;28;8881;-63
2022/04/27 01:29:41;;;;;;;;;51.75;40.75;;;;;;;;5058229;28;8808;-64
2022/04/27 01:32:10;;;;;;;;;48.75;38.75;;;;;;;;5041335;28;8795;-64
2022/04/27 01:34:40;;;;;;;;;57.75;44.50;;;;;;;;5057997;28;9445;-63
2022/04/27 01:39:52;;;;;;;;;53.00;42.75;;;;;;;;5057912;28;8747;-64
2022/04/27 01:42:19;;;;;;;;;57.00;44.50;;;;;;;;5038736;28;9403;-63
2022/04/27 01:44:46;;;;;;;;;50.50;38.25;;;;;;;;5058035;28;8751;-64
2022/04/27 01:47:13;;;;;;;;;51.00;40.25;;;;;;;;5023908;28;9446;-64
2022/04/27 01:49:40;;;;;;;;;51.25;40.25;;;;;;;;5058250;28;8767;-64
2022/04/27 01:54:53;;;;;;;;;52.00;42.75;;;;;;;;5042940;28;8746;-65
2022/04/27 01:57:20;;;;;;;;;52.50;42.50;;;;;;;;5024656;28;8761;-64
2022/04/27 01:59:47;;;;;;;;;47.25;37.75;;;;;;;;5038156;28;8748;-64
2022/04/27 02:02:14;;;;;;;;;52.00;42.00;;;;;;;;5037620;28;8785;-69
2022/04/27 02:04:44;;;;;;;;;55.00;43.50;;;;;;;;5036380;28;8751;-63
2022/04/27 02:07:11;;;;;;;;;54.50;43.75;;;;;;;;5033598;28;8901;-62
2022/04/27 02:09:38;;;;;;;;;57.00;44.25;;;;;;;;5017429;28;9226;-62
2022/04/27 02:12:05;;;;;;;;;56.25;43.50;;;;;;;;5018139;28;8755;-62
2022/04/27 02:14:32;;;;;;;;;54.75;41.25;;;;;;;;5017496;28;8771;-62
2022/04/27 02:17:00;;;;;;;;;54.25;43.75;;;;;;;;5018097;28;8773;-62
2022/04/27 02:19:30;;;;;;;;;48.25;39.00;;;;;;;;5017759;28;8763;-63
2022/04/27 02:21:58;;;;;;;;;50.50;40.25;;;;;;;;5003574;28;8758;-62
2022/04/27 02:24:28;;;;;;;;;57.75;45.00;;;;;;;;5037256;28;8765;-63
2022/04/27 02:26:55;;;;;;;;;53.50;42.25;;;;;;;;5037452;28;8773;-63
2022/04/27 02:29:23;;;;;;;;;56.75;43.75;;;;;;;;5035104;28;8757;-63
2022/04/27 02:31:50;;;;;;;;;58.60;45.20;;;;;;;;5035034;28;8995;-63
2022/04/27 02:34:17;;;;;;;;;47.25;39.50;;;;;;;;5035874;28;8760;-61
2022/04/27 02:36:44;;;;;;;;;52.25;43.25;;;;;;;;5051135;28;8825;-62
2022/04/27 02:39:13;;;;;;;;;58.50;43.75;;;;;;;;4998898;28;8827;-62
2022/04/27 02:41:41;;;;;;;;;54.80;43.20;;;;;;;;5015639;28;8754;-62
2022/04/27 02:44:08;;;;;;;;;55.75;43.00;;;;;;;;5015611;28;8742;-64
2022/04/27 02:46:37;;;;;;;;;57.00;43.75;;;;;;;;5016834;28;8747;-64
2022/04/27 02:51:49;;;;;;;;;50.25;40.25;;;;;;;;5018733;28;8894;-61
2022/04/27 02:54:17;;;;;;;;;57.25;43.50;;;;;;;;5051398;28;8769;-62
2022/04/27 02:56:44;;;;;;;;;54.75;40.75;;;;;;;;5037421;28;8747;-63
2022/04/27 02:59:13;;;;;;;;;53.25;44.00;;;;;;;;5035845;28;8740;-62
2022/04/27 03:01:40;;;;;;;;;55.25;43.75;;;;;;;;5019329;28;8831;-62
2022/04/27 03:04:08;;;;;;;;;50.25;41.25;;;;;;;;5037901;28;8721;-62
2022/04/27 03:06:35;;;;;;;;;52.75;42.25;;;;;;;;5036955;28;8745;-62
2022/04/27 03:09:02;;;;;;;;;46.75;36.25;;;;;;;;5005769;28;8751;-65
2022/04/27 03:11:29;;;;;;;;;52.00;41.50;;;;;;;;5032128;28;8875;-65
2022/04/27 03:13:56;;;;;;;;;54.00;43.25;;;;;;;;5017127;28;8904;-62
2022/04/27 03:16:22;;;;;;;;;53.25;42.00;;;;;;;;5017445;28;9490;-62
2022/04/27 03:18:49;;;;;;;;;53.00;43.00;;;;;;;;5016900;28;8807;-62
2022/04/27 03:21:16;;;;;;;;;56.25;44.50;;;;;;;;5015841;28;8778;-67
2022/04/27 03:23:43;;;;;;;;;54.25;44.25;;;;;;;;5033261;28;8785;-64
2022/04/27 03:26:09;;;;;;;;;53.50;41.25;;;;;;;;5035585;28;8789;-69
2022/04/27 03:28:36;;;;;;;;;53.50;43.00;;;;;;;;5051299;28;8808;-71
2022/04/27 03:31:03;;;;;;;;;50.75;39.50;;;;;;;;5057530;28;8781;-66
2022/04/27 03:33:29;;;;;;;;;55.75;44.00;;;;;;;;5055828;28;8783;-65
2022/04/27 03:35:56;;;;;;;;;49.50;40.25;;;;;;;;5056010;28;8771;-64
2022/04/27 03:38:23;;;;;;;;;48.50;39.75;;;;;;;;5053016;28;9397;-69
2022/04/27 03:40:50;;;;;;;;;45.25;36.25;;;;;;;;5076218;28;8776;-68
2022/04/27 03:43:16;;;;;;;;;53.00;42.00;;;;;;;;5058873;28;9490;-63
2022/04/27 03:45:43;;;;;;;;;51.25;43.50;;;;;;;;5076715;28;8865;-67
2022/04/27 03:48:10;;;;;;;;;51.00;41.50;;;;;;;;5076364;28;8821;-64
2022/04/27 03:50:40;;;;;;;;;51.25;40.75;;;;;;;;5057583;28;8784;-65
2022/04/27 03:53:07;;;;;;;;;54.25;42.00;;;;;;;;5040223;28;8764;-66
2022/04/27 03:55:34;;;;;;;;;51.75;42.75;;;;;;;;5035208;28;8810;-65
2022/04/27 03:58:04;;;;;;;;;53.50;41.75;;;;;;;;5036300;28;8763;-66
2022/04/27 04:00:30;;;;;;;;;49.25;38.50;;;;;;;;5034602;28;9532;-68
2022/04/27 04:03:01;;;;;;;;;55.25;43.75;;;;;;;;5035845;28;8780;-65
2022/04/27 04:05:27;;;;;;;;;50.25;40.25;;;;;;;;5051497;28;8848;-64
2022/04/27 04:07:54;;;;;;;;;53.00;40.25;;;;;;;;5025391;28;8779;-65
2022/04/27 04:10:21;;;;;;;;;49.00;39.75;;;;;;;;5014949;28;8858;-62
2022/04/27 04:12:48;;;;;;;;;51.50;40.00;;;;;;;;5015707;28;9873;-60
2022/04/27 04:15:14;;;;;;;;;49.50;39.50;;;;;;;;5016531;28;9463;-66
2022/04/27 04:17:44;;;;;;;;;48.00;38.00;;;;;;;;5016805;28;8809;-67
2022/04/27 04:20:13;;;;;;;;;45.75;37.00;;;;;;;;5016072;28;8802;-66
2022/04/27 04:22:40;;;;;;;;;48.50;38.25;;;;;;;;5023390;28;8781;-65
2022/04/27 04:30:37;;;;;;;;;50.50;39.50;;;;;;;;5063688;28;8759;-66
2022/04/27 04:33:03;;;;;;;;;49.50;39.50;;;;;;;;5054225;28;8778;-65
2022/04/27 04:35:30;;;;;;;;;48.25;39.75;;;;;;;;5053694;28;8786;-65
2022/04/27 04:37:57;;;;;;;;;50.00;40.50;;;;;;;;5055169;28;9438;-64
2022/04/27 04:40:24;;;;;;;;;50.25;40.00;;;;;;;;5056031;28;8750;-64
2022/04/27 04:42:50;;;;;;;;;44.25;35.75;;;;;;;;5055908;28;8759;-64
2022/04/27 04:45:17;;;;;;;;;53.50;42.00;;;;;;;;5055819;28;8751;-63
2022/04/27 04:47:44;;;;;;;;;47.25;38.25;;;;;;;;5055342;28;8806;-64
2022/04/27 04:50:11;;;;;;;;;45.25;37.00;;;;;;;;5038135;28;8771;-65
2022/04/27 04:52:38;;;;;;;;;47.25;38.25;;;;;;;;5037691;28;11189;-64
2022/04/27 04:55:05;;;;;;;;;46.25;38.75;;;;;;;;5038541;28;9530;-64
2022/04/27 04:57:32;;;;;;;;;38.25;32.25;;;;;;;;5055431;28;8743;-64
2022/04/27 04:59:58;;;;;;;;;50.00;41.50;;;;;;;;5055627;28;8750;-64
2022/04/27 05:02:25;;;;;;;;;46.50;37.75;;;;;;;;5036880;28;8794;-64
2022/04/27 05:04:52;;;;;;;;;52.00;40.25;;;;;;;;5055698;28;8778;-64
2022/04/27 05:07:19;;;;;;;;;52.50;42.50;;;;;;;;5038280;28;8937;-63
2022/04/27 05:09:46;;;;;;;;;53.50;44.00;;;;;;;;5038831;28;8739;-64
2022/04/27 05:12:13;;;;;;;;;51.25;41.25;;;;;;;;5055379;28;8762;-63
2022/04/27 05:14:40;;;;;;;;;53.25;42.50;;;;;;;;5055261;28;8766;-63
2022/04/27 05:17:06;;;;;;;;;53.75;40.50;;;;;;;;5056131;28;8747;-63
2022/04/27 05:19:33;;;;;;;;;51.00;40.50;;;;;;;;5057089;28;8747;-63
2022/04/27 05:22:00;;;;;;;;;47.25;38.75;;;;;;;;5058765;28;8771;-63
2022/04/27 05:24:26;;;;;;;;;49.00;39.75;;;;;;;;5056862;28;9454;-63
2022/04/27 05:26:53;;;;;;;;;50.75;41.75;;;;;;;;5041191;28;8754;-63
2022/04/27 05:32:06;;;;;;;;;49.00;41.00;;;;;;;;5058193;28;8842;-63
2022/04/27 05:34:33;;;;;;;;;49.25;41.50;;;;;;;;5058675;28;9128;-63
2022/04/27 05:37:00;;;;;;;;;52.50;40.75;;;;;;;;5057771;28;8794;-63
2022/04/27 05:39:27;;;;;;;;;50.25;40.50;;;;;;;;5041013;28;8731;-64
2022/04/27 05:41:54;;;;;;;;;56.00;44.00;;;;;;;;5040387;28;8854;-63
2022/04/27 05:44:23;;;;;;;;;52.50;42.75;;;;;;;;5058579;28;8739;-63
2022/04/27 05:46:50;;;;;;;;;56.75;42.25;;;;;;;;5058422;28;8851;-63
2022/04/27 05:49:17;;;;;;;;;50.50;40.25;;;;;;;;5059138;28;8796;-62
2022/04/27 05:51:44;;;;;;;;;49.00;39.75;;;;;;;;5058595;28;8751;-64
2022/04/27 05:54:10;;;;;;;;;52.50;42.50;;;;;;;;5040319;28;8746;-64
2022/04/27 05:56:37;;;;;;;;;50.50;40.50;;;;;;;;5040713;28;8794;-63
2022/04/27 05:59:04;;;;;;;;;54.50;42.25;;;;;;;;5058418;28;8755;-63
2022/04/27 06:01:31;;;;;;;;;56.00;44.50;;;;;;;;5048320;28;8763;-63
2022/04/27 06:03:58;;;;;;;;;52.50;42.75;;;;;;;;5041572;28;8763;-62
2022/04/27 06:06:24;;;;;;;;;52.25;43.25;;;;;;;;5058182;28;8770;-62
2022/04/27 06:08:51;;;;;;;;;51.67;44.00;;;;;;;;5058184;28;8825;-62
2022/04/27 06:11:19;;;;;;;;;56.40;45.00;;;;;;;;5078246;28;8765;-61
2022/04/27 06:13:49;;;;;;;;;51.25;42.00;;;;;;;;5077843;28;8772;-62
2022/04/27 06:16:15;;;;;;;;;53.20;42.60;;;;;;;;5078659;28;8749;-62
2022/04/27 06:18:42;;;;;;;;;58.00;44.25;;;;;;;;5059982;28;8837;-62
2022/04/27 06:21:09;;;;;;;;;53.00;42.20;;;;;;;;5078015;28;8848;-63
2022/04/27 06:23:40;;;;;;;;;48.00;39.25;;;;;;;;5051403;28;8795;-63
2022/04/27 06:26:06;;;;;;;;;50.25;40.75;;;;;;;;5037358;28;9284;-63
2022/04/27 06:28:33;;;;;;;;;54.75;43.00;;;;;;;;5036128;28;8801;-63
2022/04/27 06:31:00;;;;;;;;;52.75;43.00;;;;;;;;5053487;28;9406;-63
2022/04/27 06:33:27;;;;;;;;;52.50;43.00;;;;;;;;5036729;28;8824;-62
2022/04/27 06:35:54;;;;;;;;;46.75;37.00;;;;;;;;5037644;28;9571;-63
2022/04/27 06:38:21;;;;;;;;;50.50;40.75;;;;;;;;5023305;28;8865;-63
2022/04/27 06:40:47;;;;;;;;;48.50;38.75;;;;;;;;5016820;28;8774;-63
2022/04/27 06:43:14;;;;;;;;;49.40;42.40;;;;;;;;5018256;28;8782;-65
2022/04/27 06:45:41;;;;;;;;;45.75;37.00;;;;;;;;5017689;28;8755;-64
2022/04/27 06:48:08;;;;;;;;;57.80;44.80;;;;;;;;5017415;28;8782;-64
2022/04/27 06:50:34;;;;;;;;;48.20;38.60;;;;;;;;5017664;28;8802;-63
2022/04/27 06:53:01;;;;;;;;;49.25;39.75;;;;;;;;5028282;28;9406;-63
2022/04/27 06:55:28;;;;;;;;;46.25;38.00;;;;;;;;5035127;28;9419;-63
2022/04/27 06:57:55;;;;;;;;;50.40;40.40;;;;;;;;5036389;28;8768;-64
2022/04/27 07:00:21;;;;;;;;;45.50;36.75;;;;;;;;5037063;28;8741;-64
2022/04/27 07:02:48;;;;;;;;;47.75;39.75;;;;;;;;5037050;28;8872;-64
2022/04/27 07:05:19;;;;;;;;;53.00;41.25;;;;;;;;5035879;28;8741;-65
2022/04/27 07:07:48;;;;;;;;;53.00;41.00;;;;;;;;5028152;28;8759;-68
2022/04/27 07:10:15;;;;;;;;;51.00;41.50;;;;;;;;5018223;28;8779;-68
2022/04/27 07:12:42;;;;;;;;;53.00;43.00;;;;;;;;5017545;28;8743;-68
2022/04/27 07:15:09;;;;;;;;;46.25;39.50;;;;;;;;5017545;28;8771;-67
2022/04/27 07:17:36;;;;;;;;;47.75;38.25;;;;;;;;5017030;28;8755;-67
2022/04/27 07:20:03;;;;;;;;;45.75;39.25;;;;;;;;5017267;28;8751;-68
2022/04/27 07:22:30;;;;;;;;;48.75;39.75;;;;;;;;5018711;28;9477;-67
2022/04/27 07:24:56;;;;;;;;;50.40;42.00;;;;;;;;5017471;28;8731;-67
2022/04/27 07:27:23;;;;;;;;;53.20;39.60;;;;;;;;5016816;28;9933;-67
2022/04/27 07:29:50;;;;;;;;;48.00;39.40;;;;;;;;5016963;28;8743;-67
2022/04/27 07:32:16;;;;;;;;;49.75;40.00;;;;;;;;5048911;28;8735;-67
2022/04/27 07:34:43;;;;;;;;;51.50;42.00;;;;;;;;5048782;28;8739;-67
2022/04/27 07:37:10;;;;;;;;;45.60;36.60;;;;;;;;5012980;28;8748;-67
2022/04/27 07:39:36;;;;;;;;;52.40;42.20;;;;;;;;4996740;28;8796;-67
2022/04/27 07:42:04;;;;;;;;;51.75;40.75;;;;;;;;4997143;28;8730;-67
2022/04/27 07:44:30;;;;;;;;;50.20;41.20;;;;;;;;4994749;28;8765;-68
2022/04/27 07:46:57;;;;;;;;;47.00;39.50;;;;;;;;5021530;28;8750;-67
2022/04/27 07:49:24;;;;;;;;;56.00;43.25;;;;;;;;4997648;28;8789;-67
2022/04/27 07:51:51;;;;;;;;;50.25;41.50;;;;;;;;5017029;28;8775;-68
2022/04/27 07:54:18;;;;;;;;;46.50;38.25;;;;;;;;5047975;28;8912;-67
2022/04/27 07:56:44;;;;;;;;;47.50;38.00;;;;;;;;5056416;28;8809;-68
2022/04/27 07:59:11;;;;;;;;;48.50;38.25;;;;;;;;5056533;28;10012;-66
2022/04/27 08:01:38;;;;;;;;;49.75;40.00;;;;;;;;5071298;28;8793;-66
2022/04/27 08:04:05;;;;;;;;;53.00;41.80;;;;;;;;5057741;28;8793;-68
2022/04/27 08:06:32;;;;;;;;;46.40;38.80;;;;;;;;5071899;28;8803;-68
2022/04/27 08:08:58;;;;;;;;;47.60;37.40;;;;;;;;5024473;28;8821;-68
2022/04/27 08:11:25;;;;;;;;;48.00;38.20;;;;;;;;5034710;28;8748;-68
2022/04/27 08:13:52;;;;;;;;;52.60;42.20;;;;;;;;5051451;28;8784;-68
2022/04/27 08:16:19;;;;;;;;;46.75;36.75;;;;;;;;5036672;28;8901;-67
2022/04/27 08:18:46;;;;;;;;;49.25;39.25;;;;;;;;5036803;28;9028;-67
2022/04/27 08:21:15;;;;;;;;;45.00;36.50;;;;;;;;5036315;28;8899;-67
2022/04/27 08:23:49;;;;;;;;;51.50;41.25;;;;;;;;5049153;28;8816;-67
2022/04/27 08:26:15;;;;;;;;;51.25;40.75;;;;;;;;5056028;28;8770;-67
2022/04/27 08:28:42;;;;;;;;;50.00;40.25;;;;;;;;5055884;28;8802;-67
2022/04/27 08:31:09;;;;;;;;;54.25;42.50;;;;;;;;5037359;28;8816;-68
2022/04/27 08:33:36;;;;;;;;;47.50;38.50;;;;;;;;5054714;28;8795;-70
2022/04/27 08:36:03;;;;;;;;;51.25;40.00;;;;;;;;5037833;28;8885;-69
2022/04/27 08:38:30;;;;;;;;;48.00;39.25;;;;;;;;5055109;28;8885;-69
2022/04/27 08:40:56;;;;;;;;;49.50;39.50;;;;;;;;5054844;28;9800;-70
2022/04/27 08:43:23;;;;;;;;;47.75;40.00;;;;;;;;5056409;28;8846;-69
2022/04/27 08:45:51;;;;;;;;;48.25;36.25;;;;;;;;5056550;28;8723;-69
2022/04/27 08:48:18;;;;;;;;;49.00;39.25;;;;;;;;5038568;28;8802;-68
2022/04/27 08:50:45;;;;;;;;;46.25;39.00;;;;;;;;5035329;28;8752;-70
2022/04/27 08:53:12;;;;;;;;;51.25;40.25;;;;;;;;5038583;28;8772;-69
2022/04/27 08:55:40;;;;;;;;;42.25;33.75;;;;;;;;5050310;28;8754;-69
2022/04/27 08:58:16;;;;;;;;;51.00;40.50;;;;;;;;5040439;28;8839;-70
2022/04/27 09:00:43;;;;;;;;;50.50;41.50;;;;;;;;5039885;28;8762;-70
2022/04/27 09:03:25;;;;;;;;;50.50;38.75;;;;;;;;5054873;28;8776;-67
2022/04/27 09:05:53;;;;;;;;;50.00;41.00;;;;;;;;5055087;28;8779;-68
2022/04/27 09:08:19;;;;;;;;;49.00;38.25;;;;;;;;5021869;28;8849;-69
2022/04/27 09:10:46;;;;;;;;;47.75;39.00;;;;;;;;5039758;28;8756;-68
2022/04/27 09:13:16;;;;;;;;;50.25;40.00;;;;;;;;5055393;28;8867;-69
2022/04/27 09:15:43;;;;;;;;;46.75;37.25;;;;;;;;5039655;28;8762;-69
2022/04/27 09:21:02;;;;;;;;;46.75;35.75;;;;;;;;5039367;28;8808;-69
2022/04/27 09:23:37;;;;;;;;;46.50;37.75;;;;;;;;5024225;28;8798;-69
2022/04/27 09:26:17;;;;;;;;;43.00;36.75;;;;;;;;5019465;28;8774;-68
2022/04/27 09:28:48;;;;;;;;;51.25;38.25;;;;;;;;5019292;28;8993;-69
2022/04/27 09:31:27;;;;;;;;;49.25;39.75;;;;;;;;5020280;28;8810;-68
2022/04/27 09:34:27;;;;;;;;;52.00;41.25;;;;;;;;5019716;28;8798;-70
2022/04/27 09:36:54;;;;;;;;;47.25;38.00;;;;;;;;5020763;28;9454;-69
2022/04/27 09:39:26;;;;;;;;;47.50;37.75;;;;;;;;5042754;28;9457;-70
2022/04/27 09:41:54;;;;;;;;;48.25;38.75;;;;;;;;5039416;28;8776;-68
2022/04/27 09:44:30;;;;;;;;;50.00;42.00;;;;;;;;5038645;28;8757;-67
2022/04/27 09:46:57;;;;;;;;;41.75;32.50;;;;;;;;5041009;28;8848;-69
2022/04/27 09:49:24;;;;;;;;;47.25;35.75;;;;;;;;5058542;28;8810;-70
2022/04/27 09:51:52;;;;;;;;;51.25;40.75;;;;;;;;5058986;28;8735;-69
2022/04/27 09:54:19;;;;;;;;;39.75;32.25;;;;;;;;5058567;28;8774;-67
2022/04/27 09:56:49;;;;;;;;;45.40;37.40;;;;;;;;5058535;28;8782;-69
2022/04/27 09:59:17;;;;;;;;;55.00;41.00;;;;;;;;5058693;28;8797;-67
2022/04/27 10:01:43;;;;;;;;;46.25;35.75;;;;;;;;5057966;28;8747;-70
2022/04/27 10:04:10;;;;;;;;;42.75;36.75;;;;;;;;5058763;28;8751;-68
2022/04/27 10:06:37;;;;;;;;;49.80;38.80;;;;;;;;5041051;28;9611;-68
2022/04/27 10:09:04;;;;;;;;;47.00;37.75;;;;;;;;5040309;28;9035;-68
2022/04/27 10:11:32;;;;;;;;;50.25;39.25;;;;;;;;5058085;28;8856;-68
2022/04/27 10:14:00;;;;;;;;;49.00;36.25;;;;;;;;5040582;28;8792;-69
2022/04/27 10:16:27;;;;;;;;;46.75;37.25;;;;;;;;5040829;28;8755;-68
2022/04/27 10:18:54;;;;;;;;;42.00;31.25;;;;;;;;5057347;28;8759;-69
2022/04/27 10:21:39;;;;;;;;;39.75;35.25;;;;;;;;5058117;28;8754;-68
2022/04/27 10:24:07;;;;;;;;;50.00;37.20;;;;;;;;5057912;28;8767;-69
2022/04/27 10:26:33;;;;;;;;;50.50;41.25;;;;;;;;5023461;28;8778;-68
2022/04/27 10:29:01;;;;;;;;;50.00;39.40;;;;;;;;5047716;28;9616;-68
2022/04/27 10:31:43;;;;;;;;;48.25;38.00;;;;;;;;5057145;28;8743;-68
2022/04/27 10:34:13;;;;;;;;;51.00;40.00;;;;;;;;5058579;28;8753;-68
2022/04/27 10:36:40;;;;;;;;;49.20;38.60;;;;;;;;5057982;28;8771;-69
2022/04/27 10:39:13;;;;;;;;;49.40;41.40;;;;;;;;5038121;28;8850;-69
2022/04/27 10:41:40;;;;;;;;;52.20;40.40;;;;;;;;5037836;28;9469;-68
2022/04/27 10:44:06;;;;;;;;;56.00;42.60;;;;;;;;5037696;28;9414;-68
2022/04/27 10:46:39;;;;;;;;;45.25;36.25;;;;;;;;5019890;28;8791;-68
2022/04/27 10:49:25;;;;;;;;;53.60;42.60;;;;;;;;5038271;28;8785;-68
2022/04/27 10:52:08;;;;;;;;;56.40;43.60;;;;;;;;5038131;28;8765;-68
2022/04/27 10:54:38;;;;;;;;;54.75;42.75;;;;;;;;5057781;28;8988;-68
2022/04/27 10:57:17;;;;;;;;;51.00;42.25;;;;;;;;5057364;28;8793;-69
2022/04/27 10:59:44;;;;;;;;;59.20;45.40;;;;;;;;5057776;28;8766;-69
2022/04/27 11:02:44;;;;;;;;;55.80;43.20;;;;;;;;5057329;28;9392;-68
2022/04/27 11:05:14;;;;;;;;;59.20;46.20;;;;;;;;5022148;28;8809;-68
2022/04/27 11:08:00;;;;;;;;;61.50;45.00;;;;;;;;5057384;28;8755;-68
2022/04/27 11:10:27;;;;;;;;;58.00;42.60;;;;;;;;5023688;28;8770;-69
2022/04/27 11:12:54;;;;;;;;;53.20;39.60;;;;;;;;5057768;28;8770;-68
2022/04/27 11:15:27;;;;;;;;;52.00;41.20;;;;;;;;5056562;28;8755;-68
2022/04/27 11:17:55;;;;;;;;;50.60;40.60;;;;;;;;5057283;28;8979;-68
2022/04/27 11:20:27;;;;;;;;;47.00;37.75;;;;;;;;5056963;28;8755;-68
2022/04/27 11:22:53;;;;;;;;;53.40;44.20;;;;;;;;5056753;28;8787;-68
2022/04/27 11:25:23;;;;;;;;;50.60;41.20;;;;;;;;5057416;28;8739;-68
2022/04/27 11:27:51;;;;;;;;;45.75;37.50;;;;;;;;5039845;28;8762;-68
2022/04/27 11:30:17;;;;;;;;;56.00;42.00;;;;;;;;5057144;28;8786;-69
2022/04/27 11:32:47;;;;;;;;;53.00;43.60;;;;;;;;5057275;28;8766;-68
2022/04/27 11:35:14;;;;;;;;;55.40;43.40;;;;;;;;5057097;28;8774;-68
2022/04/27 11:37:41;;;;;;;;;56.20;42.80;;;;;;;;5056926;28;9430;-68
2022/04/27 11:40:14;;;;;;;;;59.20;45.40;;;;;;;;5040035;28;8743;-68
2022/04/27 11:42:44;;;;;;;;;58.80;46.20;;;;;;;;5056733;28;8739;-69
2022/04/27 11:45:15;;;;;;;;;57.00;45.80;;;;;;;;5057246;28;8777;-68
2022/04/27 11:47:41;;;;;;;;;57.60;44.20;;;;;;;;5038845;28;8775;-68
2022/04/27 11:50:11;;;;;;;;;56.20;46.20;;;;;;;;5056850;28;8893;-68
2022/04/27 11:52:38;;;;;;;;;50.20;40.00;;;;;;;;5056313;28;8762;-68
2022/04/27 11:55:11;;;;;;;;;57.40;44.40;;;;;;;;5056997;28;8754;-68
2022/04/27 11:57:41;;;;;;;;;49.20;39.80;;;;;;;;5056890;28;8867;-68
2022/04/27 12:00:08;;;;;;;;;63.60;48.60;;;;;;;;5039148;28;8786;-68
2022/04/27 12:02:35;;;;;;;;;62.60;48.20;;;;;;;;5056559;28;8794;-68
2022/04/27 12:05:02;;;;;;;;;62.40;49.00;;;;;;;;5056474;28;8771;-68
2022/04/27 12:07:34;;;;;;;;;61.20;50.20;;;;;;;;5056105;28;8735;-68
2022/04/27 12:10:06;;;;;;;;;64.40;49.80;;;;;;;;5039839;28;8759;-69
2022/04/27 12:12:33;;;;;;;;;66.80;52.60;;;;;;;;5022250;28;8860;-68
2022/04/27 12:15:04;;;;;;;;;67.20;51.20;;;;;;;;5056530;28;8770;-68
2022/04/27 12:17:50;;;;;;;;;61.00;48.80;;;;;;;;5038655;28;8804;-68
2022/04/27 12:20:30;;;;;;;;;60.20;48.40;;;;;;;;5056485;28;8775;-68
2022/04/27 12:23:01;;;;;;;;;61.80;47.80;;;;;;;;5034968;28;8764;-68
2022/04/27 12:25:43;;;;;;;;;64.40;51.20;;;;;;;;5036183;28;8744;-68
2022/04/27 12:28:14;;;;;;;;;63.00;50.40;;;;;;;;5041533;28;8763;-68
2022/04/27 12:30:44;;;;;;;;;63.00;50.20;;;;;;;;5040662;28;8780;-68
2022/04/27 12:33:12;;;;;;;;;63.80;50.00;;;;;;;;5039609;28;8744;-69
2022/04/27 12:38:27;;;;;;;;;69.80;51.80;;;;;;;;5040046;28;8772;-68
2022/04/27 12:40:55;;;;;;;;;60.60;46.00;;;;;;;;5040447;28;8772;-68
2022/04/27 12:43:23;;;;;;;;;70.00;55.20;;;;;;;;5040645;28;9429;-68
2022/04/27 12:46:03;;;;;;;;;70.20;54.40;;;;;;;;5040520;28;8740;-69
2022/04/27 12:48:31;;;;;;;;;69.20;56.20;;;;;;;;5038787;28;8792;-69
2022/04/27 12:50:58;;;;;;;;;67.60;53.00;;;;;;;;5040112;28;9113;-69
2022/04/27 12:53:25;;;;;;;;;69.60;58.00;;;;;;;;5022532;28;8799;-68
2022/04/27 12:56:05;;;;;;;;;72.20;60.20;;;;;;;;5039867;28;8786;-69
2022/04/27 12:58:32;;;;;;;;;81.00;72.20;;;;;;;;5040365;28;9055;-69
2022/04/27 13:00:59;;;;;;;;;87.20;73.60;;;;;;;;5040704;28;8745;-69
2022/04/27 13:03:26;;;;;;;;;77.40;67.60;;;;;;;;5038995;28;8798;-68
2022/04/27 13:05:53;;;;;;;;;72.80;59.60;;;;;;;;5040258;28;9453;-69
2022/04/27 13:08:20;;;;;;;;;68.80;53.60;;;;;;;;5038273;28;8871;-68
2022/04/27 13:13:32;;;;;;;;;68.60;53.20;;;;;;;;5039151;28;8756;-68
2022/04/27 13:15:59;;;;;;;;;67.20;52.00;;;;;;;;5039768;28;8842;-69
2022/04/27 13:18:26;;;;;;;;;66.60;53.00;;;;;;;;5039756;28;8772;-69
2022/04/27 13:20:52;;;;;;;;;63.00;50.60;;;;;;;;5039701;28;8771;-69
2022/04/27 13:23:19;;;;;;;;;64.40;50.00;;;;;;;;5037795;28;8788;-69
2022/04/27 13:25:46;;;;;;;;;67.20;50.40;;;;;;;;5039504;28;8906;-69
2022/04/27 13:28:13;;;;;;;;;67.00;51.60;;;;;;;;5039910;28;8818;-69
2022/04/27 13:30:43;;;;;;;;;62.00;48.80;;;;;;;;5037804;28;9500;-69
2022/04/27 13:33:10;;;;;;;;;68.40;51.80;;;;;;;;5039303;28;9259;-69
2022/04/27 13:35:37;;;;;;;;;65.80;50.20;;;;;;;;5037629;28;8792;-69
2022/04/27 13:38:06;;;;;;;;;64.20;49.40;;;;;;;;5038785;28;8768;-69
2022/04/27 13:40:33;;;;;;;;;62.00;49.80;;;;;;;;5038754;28;8748;-68
2022/04/27 13:43:00;;;;;;;;;65.60;52.00;;;;;;;;5022296;28;8729;-69
2022/04/27 13:45:27;;;;;;;;;61.20;47.00;;;;;;;;5039085;28;8740;-69
2022/04/27 13:47:54;;;;;;;;;67.60;51.40;;;;;;;;5038747;28;8834;-69
2022/04/27 13:50:21;;;;;;;;;65.60;51.20;;;;;;;;5037290;28;9424;-69
2022/04/27 13:52:47;;;;;;;;;70.40;53.40;;;;;;;;5037573;28;8756;-69
2022/04/27 13:55:14;;;;;;;;;63.60;49.80;;;;;;;;5039654;28;8833;-70
2022/04/27 13:57:41;;;;;;;;;65.40;51.20;;;;;;;;5053886;28;8906;-69
2022/04/27 14:00:08;;;;;;;;;69.60;52.60;;;;;;;;5039030;28;8724;-69
2022/04/27 14:02:36;;;;;;;;;61.80;49.40;;;;;;;;5038451;28;8807;-69
2022/04/27 14:05:02;;;;;;;;;62.20;48.60;;;;;;;;5037658;28;8744;-69
2022/04/27 14:07:29;;;;;;;;;67.80;54.00;;;;;;;;5038525;28;8741;-69
2022/04/27 14:09:56;;;;;;;;;69.40;53.80;;;;;;;;5038098;28;8780;-69
2022/04/27 14:15:07;;;;;;;;;68.80;51.40;;;;;;;;5037610;28;8749;-69
2022/04/27 14:20:19;;;;;;;;;65.60;49.80;;;;;;;;5037046;28;8772;-68
2022/04/27 14:22:46;;;;;;;;;65.00;50.80;;;;;;;;5043774;28;8762;-69
2022/04/27 14:25:13;;;;;;;;;61.40;49.40;;;;;;;;5058873;28;8849;-69
2022/04/27 14:27:39;;;;;;;;;62.20;48.00;;;;;;;;5057022;28;8754;-68
2022/04/27 14:30:06;;;;;;;;;65.60;51.20;;;;;;;;5040470;28;8873;-69
2022/04/27 14:32:33;;;;;;;;;61.80;47.00;;;;;;;;5057964;28;8779;-69
2022/04/27 14:35:00;;;;;;;;;63.80;48.00;;;;;;;;5058134;28;9466;-68
2022/04/27 14:37:27;;;;;;;;;62.20;46.00;;;;;;;;5040084;28;8941;-68
2022/04/27 14:39:54;;;;;;;;;64.00;50.00;;;;;;;;5058613;28;8782;-68
2022/04/27 14:42:21;;;;;;;;;58.20;45.80;;;;;;;;5057650;28;8746;-68
2022/04/27 14:44:48;;;;;;;;;59.40;46.80;;;;;;;;5040097;28;8800;-69
2022/04/27 14:47:14;;;;;;;;;62.20;49.20;;;;;;;;5057736;28;8852;-68
2022/04/27 14:49:41;;;;;;;;;59.25;47.50;;;;;;;;5056605;28;8783;-68
2022/04/27 14:52:08;;;;;;;;;59.25;46.50;;;;;;;;5058529;28;8765;-69
2022/04/27 14:54:35;;;;;;;;;53.00;40.25;;;;;;;;5057471;28;8832;-68
2022/04/27 14:57:02;;;;;;;;;60.25;45.75;;;;;;;;5057658;28;8735;-69
2022/04/27 14:59:29;;;;;;;;;56.50;45.00;;;;;;;;5057384;28;9427;-68
2022/04/27 15:01:56;;;;;;;;;55.00;44.00;;;;;;;;5057655;28;8774;-68
2022/04/27 15:04:22;;;;;;;;;56.75;43.25;;;;;;;;5056727;28;8727;-68
2022/04/27 15:06:49;;;;;;;;;57.25;44.25;;;;;;;;5057343;28;8880;-69